createdAt,value
2024-01-28T00:02:46.790Z,102245.78
2024-01-28T00:07:43.692Z,102301.31
2024-01-28T00:12:40.571Z,102311.75
2024-01-28T00:17:37.551Z,102259.00
2024-01-28T00:22:35.067Z,102320.59
2024-01-28T00:27:31.900Z,102316.28
2024-01-28T00:32:28.783Z,102325.00
2024-01-28T00:37:25.668Z,102331.09
2024-01-28T00:42:24.266Z,102312.03
2024-01-28T00:47:21.119Z,102333.72
2024-01-28T00:52:18.097Z,102308.59
2024-01-28T00:57:15.017Z,102346.72
2024-01-28T01:02:12.652Z,102350.19
2024-01-28T01:07:10.233Z,102351.97
2024-01-28T01:12:07.330Z,102351.97
2024-01-28T01:17:04.780Z,102363.25
2024-01-28T01:22:03.245Z,102358.94
2024-01-28T01:27:03.285Z,102348.53
2024-01-28T01:32:00.250Z,102338.19
2024-01-28T01:36:57.122Z,102371.19
2024-01-28T01:41:54.660Z,102336.50
2024-01-28T01:46:51.591Z,102361.69
2024-01-28T01:51:49.218Z,102384.28
2024-01-28T01:56:46.289Z,102352.16
2024-01-28T02:01:44.250Z,102357.34
2024-01-28T02:06:41.405Z,102305.31
2024-01-28T02:11:38.479Z,102355.63
2024-01-28T02:16:35.326Z,102381.66
2024-01-28T02:21:33.077Z,102375.59
2024-01-28T02:26:30.588Z,102403.38
2024-01-28T02:31:27.403Z,102412.94
2024-01-28T02:36:24.258Z,102339.19
2024-01-28T02:41:21.232Z,102376.44
2024-01-28T02:46:18.805Z,102405.06
2024-01-28T02:51:15.781Z,102399.91
2024-01-28T02:56:12.712Z,102399.06
2024-01-28T03:01:09.547Z,102428.56
2024-01-28T03:06:07.259Z,102433.78
2024-01-28T03:11:05.692Z,102412.09
2024-01-28T03:16:04.076Z,102432.97
2024-01-28T03:21:00.909Z,102426.03
2024-01-28T03:25:58.647Z,102447.75
2024-01-28T03:30:55.496Z,102407.84
2024-01-28T03:35:52.394Z,102431.28
2024-01-28T03:40:49.878Z,102450.41
2024-01-28T03:45:47.435Z,102433.03
2024-01-28T03:50:44.271Z,102447.81
2024-01-28T03:55:41.232Z,102436.50
2024-01-28T04:00:38.143Z,102432.16
2024-01-28T04:05:36.229Z,102461.72
2024-01-28T04:10:33.133Z,102473.91
2024-01-28T04:15:30.143Z,102457.41
2024-01-28T04:20:27.051Z,102481.75
2024-01-28T04:25:24.950Z,102501.72
2024-01-28T04:30:22.338Z,102498.25
2024-01-28T04:35:19.379Z,102509.56
2024-01-28T04:40:16.510Z,102466.09
2024-01-28T04:45:14.236Z,102524.31
2024-01-28T04:50:11.483Z,102531.28
2024-01-28T04:55:10.475Z,102532.13
2024-01-28T05:00:10.870Z,102517.34
2024-01-28T05:05:09.242Z,102533.00
2024-01-28T05:10:09.399Z,102484.28
2024-01-28T05:15:09.080Z,102532.91
2024-01-28T05:20:09.655Z,102557.22
2024-01-28T05:25:09.892Z,102550.16
2024-01-28T05:30:07.894Z,102464.03
2024-01-28T05:35:05.527Z,102572.69
2024-01-28T05:40:03.222Z,102557.84
2024-01-28T05:45:00.819Z,102499.53
2024-01-28T05:49:57.865Z,102582.13
2024-01-28T05:54:55.087Z,102532.50
2024-01-28T05:59:54.606Z,102602.06
2024-01-28T06:04:52.547Z,102608.16
2024-01-28T06:09:52.986Z,102582.91
2024-01-28T06:14:53.689Z,102606.44
2024-01-28T06:19:53.084Z,102603.88
2024-01-28T06:24:52.291Z,102602.25
2024-01-28T06:29:53.380Z,102546.63
2024-01-28T06:34:50.628Z,102610.19
2024-01-28T06:39:52.048Z,102629.41
2024-01-28T06:44:56.396Z,102607.69
2024-01-28T06:49:53.966Z,102632.06
2024-01-28T06:54:53.838Z,102599.00
2024-01-28T06:59:54.183Z,102599.00
2024-01-28T07:04:53.507Z,102608.59
2024-01-28T07:09:50.726Z,102645.16
2024-01-28T07:14:48.239Z,102625.16
2024-01-28T07:19:47.918Z,102551.28
2024-01-28T07:24:46.110Z,102654.72
2024-01-28T07:29:45.570Z,102621.66
2024-01-28T07:34:43.115Z,102672.06
2024-01-28T07:39:46.672Z,102638.09
2024-01-28T07:44:47.827Z,102561.63
2024-01-28T07:49:45.583Z,102667.69
2024-01-28T07:54:42.807Z,102579.88
2024-01-28T07:59:41.321Z,102609.47
2024-01-28T08:04:40.805Z,102618.13
2024-01-28T08:09:38.241Z,102679.00
2024-01-28T08:14:35.531Z,102706.84
2024-01-28T08:19:32.808Z,102693.78
2024-01-28T08:24:30.979Z,102659.88
2024-01-28T08:29:28.633Z,102652.03
2024-01-28T08:34:25.777Z,102693.75
2024-01-28T08:39:24.921Z,102726.75
2024-01-28T08:44:25.822Z,102594.66
2024-01-28T08:49:23.046Z,102638.06
2024-01-28T08:54:21.431Z,102665.00
2024-01-28T08:59:18.592Z,102717.97
2024-01-28T09:04:16.580Z,102732.75
2024-01-28T09:09:15.566Z,102723.16
2024-01-28T09:14:13.733Z,102729.19
2024-01-28T09:19:15.968Z,102612.69
2024-01-28T09:24:15.912Z,102736.94
2024-01-28T09:29:13.261Z,102697.75
2024-01-28T09:34:11.267Z,102620.44
2024-01-28T09:39:11.353Z,102726.31
2024-01-28T09:44:11.051Z,102643.75
2024-01-28T09:49:17.197Z,102740.06
2024-01-28T09:54:31.712Z,102704.28
2024-01-28T09:59:31.547Z,102664.09
2024-01-28T10:04:35.178Z,102703.13
2024-01-28T10:10:13.272Z,102686.53
2024-01-28T10:15:28.107Z,102608.31
2024-01-28T10:20:26.817Z,102623.00
2024-01-28T10:25:24.308Z,102737.66
2024-01-28T10:30:28.857Z,102733.22
2024-01-28T10:35:27.467Z,102629.09
2024-01-28T10:40:31.462Z,102645.59
2024-01-28T10:45:29.130Z,102714.25
2024-01-28T10:50:32.421Z,102622.22
2024-01-28T10:55:31.244Z,102628.22
2024-01-28T11:00:29.616Z,102706.25
2024-01-28T11:05:28.601Z,102641.84
2024-01-28T11:10:28.427Z,102709.41
2024-01-28T11:15:26.887Z,102711.84
2024-01-28T11:20:29.208Z,102728.91
2024-01-28T11:25:28.842Z,102708.66
2024-01-28T11:30:26.241Z,102696.44
2024-01-28T11:35:26.089Z,102708.31
2024-01-28T11:40:24.495Z,102674.25
2024-01-28T11:45:25.551Z,102724.38
2024-01-28T11:50:22.578Z,102706.00
2024-01-28T11:55:19.707Z,102718.84
2024-01-28T12:00:17.261Z,102720.53
2024-01-28T12:05:14.963Z,102682.31
2024-01-28T12:10:14.079Z,102713.59
2024-01-28T12:15:14.658Z,102681.63
2024-01-28T12:20:21.608Z,102712.00
2024-01-28T12:25:23.403Z,102677.34
2024-01-28T12:30:22.008Z,102688.75
2024-01-28T12:35:22.264Z,102713.16
2024-01-28T12:40:19.387Z,102740.19
2024-01-28T12:45:16.657Z,102742.97
2024-01-28T12:50:14.081Z,102750.94
2024-01-28T12:55:12.312Z,102727.47
2024-01-28T13:00:11.119Z,102738.81
2024-01-28T13:05:11.280Z,102754.34
2024-01-28T13:10:09.879Z,102724.81
2024-01-28T13:15:08.633Z,102685.94
2024-01-28T13:20:08.018Z,102729.41
2024-01-28T13:25:06.269Z,102763.31
2024-01-28T13:30:04.555Z,102802.53
2024-01-28T13:35:03.144Z,102801.72
2024-01-28T13:40:00.241Z,102776.72
2024-01-28T13:44:57.316Z,102820.44
2024-01-28T13:49:56.129Z,102816.47
2024-01-28T13:54:56.448Z,102788.94
2024-01-28T13:59:53.527Z,102858.13
2024-01-28T14:04:50.370Z,102808.72
2024-01-28T14:09:47.440Z,102782.03
2024-01-28T14:14:45.730Z,102867.50
2024-01-28T14:19:43.096Z,102838.94
2024-01-28T14:24:40.347Z,102842.69
2024-01-28T14:29:43.661Z,102894.97
2024-01-28T14:34:41.566Z,102853.91
2024-01-28T14:39:39.013Z,102813.88
2024-01-28T14:44:36.009Z,102894.94
2024-01-28T14:49:33.304Z,102856.63
2024-01-28T14:54:33.523Z,102911.53
2024-01-28T14:59:30.716Z,102847.94
2024-01-28T15:04:34.091Z,102892.34
2024-01-28T15:09:31.949Z,102937.63
2024-01-28T15:14:29.035Z,102935.84
2024-01-28T15:19:26.118Z,102927.91
2024-01-28T15:24:26.285Z,102853.72
2024-01-28T15:29:25.071Z,102914.69
2024-01-28T15:34:22.407Z,102937.41
2024-01-28T15:39:22.602Z,102940.94
2024-01-28T15:44:19.792Z,102917.44
2024-01-28T15:49:19.293Z,102977.69
2024-01-28T15:54:18.064Z,102941.03
2024-01-28T15:59:15.401Z,102933.19
2024-01-28T16:04:12.768Z,102932.34
2024-01-28T16:09:10.896Z,102994.25
2024-01-28T16:14:08.091Z,103012.50
2024-01-28T16:19:06.639Z,103026.31
2024-01-28T16:24:03.938Z,102985.06
2024-01-28T16:29:04.172Z,102928.09
2024-01-28T16:34:01.135Z,103005.75
2024-01-28T16:38:58.162Z,102991.91
2024-01-28T16:43:55.096Z,102992.09
2024-01-28T16:48:53.107Z,102997.22
2024-01-28T16:53:50.136Z,103057.13
2024-01-28T16:58:47.407Z,103061.41
2024-01-28T17:03:44.653Z,103068.34
2024-01-28T17:08:42.396Z,103028.16
2024-01-28T17:13:40.368Z,103082.19
2024-01-28T17:18:41.704Z,102988.59
2024-01-28T17:23:38.860Z,103097.63
2024-01-28T17:28:37.624Z,103103.66
2024-01-28T17:33:34.651Z,103113.97
2024-01-28T17:38:31.624Z,103095.53
2024-01-28T17:43:28.846Z,103093.63
2024-01-28T17:48:29.382Z,103129.31
2024-01-28T17:53:26.566Z,103112.56
2024-01-28T17:58:23.639Z,103072.19
2024-01-28T18:03:21.197Z,103112.28
2024-01-28T18:08:20.420Z,103080.56
2024-01-28T18:13:17.550Z,103124.09
2024-01-28T18:18:14.903Z,103102.94
2024-01-28T18:23:12.028Z,103137.78
2024-01-28T18:28:16.071Z,103159.41
2024-01-28T18:33:16.657Z,103158.28
2024-01-28T18:38:15.559Z,103102.06
2024-01-28T18:43:13.328Z,103166.81
2024-01-28T18:48:13.119Z,103184.09
2024-01-28T18:53:14.686Z,103170.81
2024-01-28T18:58:19.164Z,103161.91
2024-01-28T19:03:17.330Z,103163.66
2024-01-28T19:08:23.577Z,103136.59
2024-01-28T19:13:29.400Z,103126.13
2024-01-28T19:18:28.567Z,103198.16
2024-01-28T19:23:26.603Z,103127.06
2024-01-28T19:28:24.510Z,103139.25
2024-01-28T19:33:23.232Z,103206.50
2024-01-28T19:38:22.736Z,103209.09
2024-01-28T19:43:20.482Z,103141.66
2024-01-28T19:48:18.707Z,103160.56
2024-01-28T19:53:15.967Z,103192.19
2024-01-28T19:58:18.355Z,103158.00
2024-01-28T20:03:21.163Z,103204.59
2024-01-28T20:08:22.663Z,103182.56
2024-01-28T20:13:22.641Z,103176.22
2024-01-28T20:18:22.935Z,103220.03
2024-01-28T20:23:21.869Z,103246.63
2024-01-28T20:28:19.071Z,103243.38
2024-01-28T20:33:17.037Z,103246.06
2024-01-28T20:38:15.264Z,103189.03
2024-01-28T20:43:13.003Z,103201.19
2024-01-28T20:48:10.258Z,103200.41
2024-01-28T20:53:07.306Z,103255.50
2024-01-28T20:58:04.733Z,103242.44
2024-01-28T21:03:02.583Z,103267.53
2024-01-28T21:08:00.057Z,103264.31
2024-01-28T21:12:57.168Z,103251.00
2024-01-28T21:17:56.071Z,103262.03
2024-01-28T21:22:55.106Z,103256.38
2024-01-28T21:27:52.920Z,103223.41
2024-01-28T21:32:50.105Z,103267.03
2024-01-28T21:37:47.279Z,103283.09
2024-01-28T21:42:45.405Z,103224.97
2024-01-28T21:47:42.827Z,103270.31
2024-01-28T21:52:40.083Z,103257.16
2024-01-28T21:57:37.190Z,103272.75
2024-01-28T22:02:35.706Z,103175.38
2024-01-28T22:07:32.876Z,103202.97
2024-01-28T22:12:29.979Z,103290.38
2024-01-28T22:17:27.157Z,103286.69
2024-01-28T22:22:25.061Z,103209.22
2024-01-28T22:27:22.858Z,103296.00
2024-01-28T22:32:20.045Z,103278.25
2024-01-28T22:37:19.176Z,103209.84
2024-01-28T22:42:17.932Z,103171.09
2024-01-28T22:47:15.519Z,103205.31
2024-01-28T22:52:12.835Z,103288.66
2024-01-28T22:57:10.501Z,103220.94
2024-01-28T23:02:08.344Z,103268.41
2024-01-28T23:07:05.429Z,103239.63
2024-01-28T23:12:02.355Z,103294.84
2024-01-28T23:16:59.451Z,103268.63
2024-01-28T23:21:57.336Z,103296.72
2024-01-28T23:26:54.606Z,103228.31
2024-01-28T23:31:51.572Z,103166.88
2024-01-28T23:36:48.611Z,103267.81
2024-01-28T23:41:46.189Z,103231.97
2024-01-28T23:46:43.278Z,103220.97
2024-01-28T23:51:40.521Z,103315.41
2024-01-28T23:56:37.618Z,103271.59
